sensor_id;sensor_type;location;lat;lon;timestamp;P1;durP1;ratioP1;P2;durP2;ratioP2
83018;SDS011;72834;40.104;18.336;2024-03-02T00:01:07;21.23;;;4.75;;
83018;SDS011;72834;40.104;18.336;2024-03-02T00:03:38;15.98;;;4.38;;
83018;SDS011;72834;40.104;18.336;2024-03-02T00:06:04;14.55;;;4.40;;
83018;SDS011;72834;40.104;18.336;2024-03-02T00:08:32;20.70;;;5.60;;
83018;SDS011;72834;40.104;18.336;2024-03-02T00:10:59;17.33;;;4.85;;
83018;SDS011;72834;40.104;18.336;2024-03-02T00:13:26;20.15;;;5.18;;
83018;SDS011;72834;40.104;18.336;2024-03-02T00:15:53;15.40;;;4.63;;
83018;SDS011;72834;40.104;18.336;2024-03-02T00:18:24;16.52;;;4.38;;
83018;SDS011;72834;40.104;18.336;2024-03-02T00:20:53;9.57;;;3.95;;
83018;SDS011;72834;40.104;18.336;2024-03-02T00:23:23;12.77;;;3.78;;
83018;SDS011;72834;40.104;18.336;2024-03-02T00:25:55;16.02;;;3.67;;
83018;SDS011;72834;40.104;18.336;2024-03-02T00:28:26;13.73;;;4.85;;
83018;SDS011;72834;40.104;18.336;2024-03-02T00:30:55;16.38;;;4.20;;
83018;SDS011;72834;40.104;18.336;2024-03-02T00:33:33;24.88;;;5.80;;
83018;SDS011;72834;40.104;18.336;2024-03-02T00:36:02;23.10;;;4.75;;
83018;SDS011;72834;40.104;18.336;2024-03-02T00:38:30;21.80;;;4.93;;
83018;SDS011;72834;40.104;18.336;2024-03-02T00:40:58;26.92;;;5.85;;
83018;SDS011;72834;40.104;18.336;2024-03-02T00:46:06;16.25;;;4.30;;
83018;SDS011;72834;40.104;18.336;2024-03-02T00:48:33;22.13;;;4.30;;
83018;SDS011;72834;40.104;18.336;2024-03-02T00:51:02;13.32;;;2.88;;
83018;SDS011;72834;40.104;18.336;2024-03-02T00:53:32;18.77;;;3.85;;
83018;SDS011;72834;40.104;18.336;2024-03-02T00:55:59;15.15;;;4.28;;
83018;SDS011;72834;40.104;18.336;2024-03-02T00:58:26;22.20;;;3.42;;
83018;SDS011;72834;40.104;18.336;2024-03-02T01:00:52;14.68;;;3.55;;
83018;SDS011;72834;40.104;18.336;2024-03-02T01:03:19;12.05;;;3.60;;
83018;SDS011;72834;40.104;18.336;2024-03-02T01:05:45;16.80;;;3.53;;
83018;SDS011;72834;40.104;18.336;2024-03-02T01:08:11;14.30;;;3.55;;
83018;SDS011;72834;40.104;18.336;2024-03-02T01:10:37;19.13;;;3.65;;
83018;SDS011;72834;40.104;18.336;2024-03-02T01:13:04;15.43;;;3.17;;
83018;SDS011;72834;40.104;18.336;2024-03-02T01:15:30;13.00;;;4.05;;
83018;SDS011;72834;40.104;18.336;2024-03-02T01:17:56;20.10;;;3.67;;
83018;SDS011;72834;40.104;18.336;2024-03-02T01:20:23;19.48;;;3.97;;
83018;SDS011;72834;40.104;18.336;2024-03-02T01:22:50;19.52;;;3.28;;
83018;SDS011;72834;40.104;18.336;2024-03-02T01:25:17;15.68;;;4.18;;
83018;SDS011;72834;40.104;18.336;2024-03-02T01:27:43;15.40;;;4.00;;
83018;SDS011;72834;40.104;18.336;2024-03-02T01:30:10;15.95;;;4.10;;
83018;SDS011;72834;40.104;18.336;2024-03-02T01:32:39;21.27;;;4.43;;
83018;SDS011;72834;40.104;18.336;2024-03-02T01:35:06;21.92;;;3.67;;
83018;SDS011;72834;40.104;18.336;2024-03-02T01:37:33;22.58;;;4.82;;
83018;SDS011;72834;40.104;18.336;2024-03-02T01:40:00;15.30;;;4.05;;
83018;SDS011;72834;40.104;18.336;2024-03-02T01:42:26;16.38;;;4.40;;
83018;SDS011;72834;40.104;18.336;2024-03-02T01:44:52;17.25;;;5.40;;
83018;SDS011;72834;40.104;18.336;2024-03-02T01:47:18;13.88;;;2.97;;
83018;SDS011;72834;40.104;18.336;2024-03-02T01:49:45;12.85;;;3.28;;
83018;SDS011;72834;40.104;18.336;2024-03-02T01:52:11;18.73;;;4.63;;
83018;SDS011;72834;40.104;18.336;2024-03-02T01:54:37;18.38;;;4.60;;
83018;SDS011;72834;40.104;18.336;2024-03-02T01:57:04;19.88;;;3.95;;
83018;SDS011;72834;40.104;18.336;2024-03-02T01:59:30;21.60;;;4.45;;
83018;SDS011;72834;40.104;18.336;2024-03-02T02:01:56;19.25;;;5.32;;
83018;SDS011;72834;40.104;18.336;2024-03-02T02:04:22;12.82;;;4.05;;
83018;SDS011;72834;40.104;18.336;2024-03-02T02:06:56;16.20;;;3.42;;
83018;SDS011;72834;40.104;18.336;2024-03-02T02:09:22;14.15;;;3.40;;
83018;SDS011;72834;40.104;18.336;2024-03-02T02:11:50;13.65;;;3.03;;
83018;SDS011;72834;40.104;18.336;2024-03-02T02:14:17;15.07;;;4.15;;
83018;SDS011;72834;40.104;18.336;2024-03-02T02:16:44;21.88;;;4.47;;
83018;SDS011;72834;40.104;18.336;2024-03-02T02:19:10;18.42;;;4.03;;
83018;SDS011;72834;40.104;18.336;2024-03-02T02:21:36;14.80;;;3.90;;
83018;SDS011;72834;40.104;18.336;2024-03-02T02:24:02;21.65;;;3.63;;
83018;SDS011;72834;40.104;18.336;2024-03-02T02:26:29;15.57;;;3.28;;
83018;SDS011;72834;40.104;18.336;2024-03-02T02:28:55;17.75;;;4.22;;
83018;SDS011;72834;40.104;18.336;2024-03-02T02:31:22;18.67;;;3.78;;
83018;SDS011;72834;40.104;18.336;2024-03-02T02:33:48;16.33;;;4.22;;
83018;SDS011;72834;40.104;18.336;2024-03-02T02:36:14;18.70;;;3.97;;
83018;SDS011;72834;40.104;18.336;2024-03-02T02:38:42;16.83;;;3.60;;
83018;SDS011;72834;40.104;18.336;2024-03-02T02:41:12;13.33;;;3.50;;
83018;SDS011;72834;40.104;18.336;2024-03-02T02:43:38;19.95;;;3.75;;
83018;SDS011;72834;40.104;18.336;2024-03-02T02:46:06;25.15;;;4.05;;
83018;SDS011;72834;40.104;18.336;2024-03-02T02:48:32;24.33;;;3.78;;
83018;SDS011;72834;40.104;18.336;2024-03-02T02:50:58;17.80;;;4.10;;
83018;SDS011;72834;40.104;18.336;2024-03-02T02:53:25;20.98;;;2.90;;
83018;SDS011;72834;40.104;18.336;2024-03-02T02:55:51;15.20;;;3.22;;
83018;SDS011;72834;40.104;18.336;2024-03-02T02:58:17;21.80;;;3.03;;
83018;SDS011;72834;40.104;18.336;2024-03-02T03:00:43;18.15;;;4.20;;
83018;SDS011;72834;40.104;18.336;2024-03-02T03:03:09;17.48;;;3.13;;
83018;SDS011;72834;40.104;18.336;2024-03-02T03:05:36;16.77;;;3.53;;
83018;SDS011;72834;40.104;18.336;2024-03-02T03:08:02;16.75;;;3.65;;
83018;SDS011;72834;40.104;18.336;2024-03-02T03:10:28;17.27;;;3.35;;
83018;SDS011;72834;40.104;18.336;2024-03-02T03:12:55;20.95;;;3.53;;
83018;SDS011;72834;40.104;18.336;2024-03-02T03:15:21;23.02;;;3.80;;
83018;SDS011;72834;40.104;18.336;2024-03-02T03:17:47;20.05;;;3.30;;
83018;SDS011;72834;40.104;18.336;2024-03-02T03:20:14;16.20;;;3.17;;
83018;SDS011;72834;40.104;18.336;2024-03-02T03:22:41;10.00;;;2.80;;
83018;SDS011;72834;40.104;18.336;2024-03-02T03:25:07;19.98;;;4.53;;
83018;SDS011;72834;40.104;18.336;2024-03-02T03:27:36;12.18;;;3.10;;
83018;SDS011;72834;40.104;18.336;2024-03-02T03:30:03;14.50;;;3.78;;
83018;SDS011;72834;40.104;18.336;2024-03-02T03:32:31;20.17;;;3.45;;
83018;SDS011;72834;40.104;18.336;2024-03-02T03:34:58;19.52;;;3.78;;
83018;SDS011;72834;40.104;18.336;2024-03-02T03:37:24;17.00;;;3.20;;
83018;SDS011;72834;40.104;18.336;2024-03-02T03:39:52;14.68;;;3.38;;
83018;SDS011;72834;40.104;18.336;2024-03-02T03:42:18;16.27;;;2.72;;
83018;SDS011;72834;40.104;18.336;2024-03-02T03:44:45;13.55;;;2.75;;
83018;SDS011;72834;40.104;18.336;2024-03-02T03:47:11;19.25;;;4.22;;
83018;SDS011;72834;40.104;18.336;2024-03-02T03:49:37;18.08;;;3.55;;
83018;SDS011;72834;40.104;18.336;2024-03-02T03:52:03;14.43;;;3.03;;
83018;SDS011;72834;40.104;18.336;2024-03-02T03:54:30;17.83;;;3.42;;
83018;SDS011;72834;40.104;18.336;2024-03-02T03:56:56;17.58;;;3.33;;
83018;SDS011;72834;40.104;18.336;2024-03-02T03:59:22;11.85;;;3.33;;
83018;SDS011;72834;40.104;18.336;2024-03-02T04:01:49;22.50;;;3.63;;
83018;SDS011;72834;40.104;18.336;2024-03-02T04:04:15;15.77;;;3.25;;
83018;SDS011;72834;40.104;18.336;2024-03-02T04:06:42;11.48;;;2.35;;
83018;SDS011;72834;40.104;18.336;2024-03-02T04:09:08;16.73;;;3.17;;
83018;SDS011;72834;40.104;18.336;2024-03-02T04:11:35;19.95;;;2.90;;
83018;SDS011;72834;40.104;18.336;2024-03-02T04:14:01;11.68;;;2.50;;
83018;SDS011;72834;40.104;18.336;2024-03-02T04:16:27;12.88;;;3.00;;
83018;SDS011;72834;40.104;18.336;2024-03-02T04:18:54;16.35;;;3.13;;
83018;SDS011;72834;40.104;18.336;2024-03-02T04:21:20;14.30;;;3.45;;
83018;SDS011;72834;40.104;18.336;2024-03-02T04:23:46;15.65;;;3.70;;
83018;SDS011;72834;40.104;18.336;2024-03-02T04:26:13;18.70;;;3.85;;
83018;SDS011;72834;40.104;18.336;2024-03-02T04:28:40;15.52;;;3.75;;
83018;SDS011;72834;40.104;18.336;2024-03-02T04:31:06;17.15;;;4.80;;
83018;SDS011;72834;40.104;18.336;2024-03-02T04:33:33;14.20;;;2.58;;
83018;SDS011;72834;40.104;18.336;2024-03-02T04:35:59;13.57;;;2.92;;
83018;SDS011;72834;40.104;18.336;2024-03-02T04:38:25;13.98;;;3.60;;
83018;SDS011;72834;40.104;18.336;2024-03-02T04:40:52;14.98;;;2.83;;
83018;SDS011;72834;40.104;18.336;2024-03-02T04:43:18;16.48;;;3.33;;
83018;SDS011;72834;40.104;18.336;2024-03-02T04:45:44;10.75;;;2.35;;
83018;SDS011;72834;40.104;18.336;2024-03-02T04:48:10;16.90;;;3.72;;
83018;SDS011;72834;40.104;18.336;2024-03-02T04:50:37;18.08;;;3.67;;
83018;SDS011;72834;40.104;18.336;2024-03-02T04:53:03;18.65;;;2.70;;
83018;SDS011;72834;40.104;18.336;2024-03-02T04:55:29;12.18;;;2.40;;
83018;SDS011;72834;40.104;18.336;2024-03-02T04:58:04;17.40;;;2.63;;
83018;SDS011;72834;40.104;18.336;2024-03-02T05:00:32;11.13;;;2.75;;
83018;SDS011;72834;40.104;18.336;2024-03-02T05:02:58;13.05;;;2.65;;
83018;SDS011;72834;40.104;18.336;2024-03-02T05:05:25;9.73;;;3.05;;
83018;SDS011;72834;40.104;18.336;2024-03-02T05:07:52;13.52;;;2.00;;
83018;SDS011;72834;40.104;18.336;2024-03-02T05:10:18;13.43;;;3.30;;
83018;SDS011;72834;40.104;18.336;2024-03-02T05:12:44;13.07;;;2.78;;
83018;SDS011;72834;40.104;18.336;2024-03-02T05:15:11;9.88;;;2.50;;
83018;SDS011;72834;40.104;18.336;2024-03-02T05:17:39;8.15;;;2.47;;
83018;SDS011;72834;40.104;18.336;2024-03-02T05:20:08;15.82;;;2.78;;
83018;SDS011;72834;40.104;18.336;2024-03-02T05:22:38;16.02;;;2.90;;
83018;SDS011;72834;40.104;18.336;2024-03-02T05:27:36;10.25;;;2.85;;
83018;SDS011;72834;40.104;18.336;2024-03-02T05:30:02;11.15;;;2.88;;
83018;SDS011;72834;40.104;18.336;2024-03-02T05:32:33;14.23;;;3.65;;
83018;SDS011;72834;40.104;18.336;2024-03-02T05:34:59;16.75;;;2.72;;
83018;SDS011;72834;40.104;18.336;2024-03-02T05:37:26;10.13;;;2.33;;
83018;SDS011;72834;40.104;18.336;2024-03-02T05:39:52;15.35;;;3.53;;
83018;SDS011;72834;40.104;18.336;2024-03-02T05:42:19;12.32;;;3.00;;
83018;SDS011;72834;40.104;18.336;2024-03-02T05:44:45;12.25;;;2.50;;
83018;SDS011;72834;40.104;18.336;2024-03-02T05:47:12;11.63;;;2.65;;
83018;SDS011;72834;40.104;18.336;2024-03-02T05:49:38;11.88;;;2.92;;
83018;SDS011;72834;40.104;18.336;2024-03-02T05:52:04;14.57;;;2.78;;
83018;SDS011;72834;40.104;18.336;2024-03-02T05:54:31;9.55;;;3.47;;
83018;SDS011;72834;40.104;18.336;2024-03-02T05:56:57;17.98;;;3.35;;
83018;SDS011;72834;40.104;18.336;2024-03-02T05:59:42;12.70;;;3.05;;
83018;SDS011;72834;40.104;18.336;2024-03-02T06:02:12;12.02;;;2.63;;
83018;SDS011;72834;40.104;18.336;2024-03-02T06:04:38;17.92;;;3.35;;
83018;SDS011;72834;40.104;18.336;2024-03-02T06:07:04;12.02;;;3.30;;
83018;SDS011;72834;40.104;18.336;2024-03-02T06:09:30;13.70;;;3.05;;
83018;SDS011;72834;40.104;18.336;2024-03-02T06:11:57;10.95;;;2.88;;
83018;SDS011;72834;40.104;18.336;2024-03-02T06:14:23;12.50;;;2.50;;
83018;SDS011;72834;40.104;18.336;2024-03-02T06:16:49;12.75;;;4.32;;
83018;SDS011;72834;40.104;18.336;2024-03-02T06:19:15;14.43;;;6.57;;
83018;SDS011;72834;40.104;18.336;2024-03-02T06:21:41;15.27;;;6.68;;
83018;SDS011;72834;40.104;18.336;2024-03-02T06:24:08;15.63;;;4.00;;
83018;SDS011;72834;40.104;18.336;2024-03-02T06:26:34;13.73;;;3.42;;
83018;SDS011;72834;40.104;18.336;2024-03-02T06:29:00;19.80;;;3.20;;
83018;SDS011;72834;40.104;18.336;2024-03-02T06:31:28;14.30;;;4.22;;
83018;SDS011;72834;40.104;18.336;2024-03-02T06:33:55;13.90;;;3.80;;
83018;SDS011;72834;40.104;18.336;2024-03-02T06:36:21;10.35;;;3.70;;
83018;SDS011;72834;40.104;18.336;2024-03-02T06:38:48;15.80;;;4.50;;
83018;SDS011;72834;40.104;18.336;2024-03-02T06:41:15;11.68;;;3.75;;
83018;SDS011;72834;40.104;18.336;2024-03-02T06:43:41;11.38;;;3.40;;
83018;SDS011;72834;40.104;18.336;2024-03-02T06:46:07;14.27;;;4.55;;
83018;SDS011;72834;40.104;18.336;2024-03-02T06:48:34;28.17;;;11.68;;
83018;SDS011;72834;40.104;18.336;2024-03-02T06:51:01;39.17;;;15.75;;
83018;SDS011;72834;40.104;18.336;2024-03-02T06:53:27;20.95;;;8.18;;
83018;SDS011;72834;40.104;18.336;2024-03-02T06:55:53;22.98;;;6.72;;
83018;SDS011;72834;40.104;18.336;2024-03-02T06:58:20;22.65;;;9.95;;
83018;SDS011;72834;40.104;18.336;2024-03-02T07:00:47;11.00;;;3.15;;
83018;SDS011;72834;40.104;18.336;2024-03-02T07:03:13;12.90;;;3.40;;
83018;SDS011;72834;40.104;18.336;2024-03-02T07:05:40;15.00;;;3.25;;
83018;SDS011;72834;40.104;18.336;2024-03-02T07:08:06;10.68;;;2.22;;
83018;SDS011;72834;40.104;18.336;2024-03-02T07:10:33;9.13;;;2.47;;
83018;SDS011;72834;40.104;18.336;2024-03-02T07:12:59;12.02;;;4.45;;
83018;SDS011;72834;40.104;18.336;2024-03-02T07:15:26;17.23;;;3.10;;
83018;SDS011;72834;40.104;18.336;2024-03-02T07:17:52;11.82;;;3.47;;
83018;SDS011;72834;40.104;18.336;2024-03-02T07:20:19;16.95;;;3.40;;
83018;SDS011;72834;40.104;18.336;2024-03-02T07:22:45;17.08;;;4.47;;
83018;SDS011;72834;40.104;18.336;2024-03-02T07:25:11;15.35;;;4.35;;
83018;SDS011;72834;40.104;18.336;2024-03-02T07:27:38;37.03;;;18.45;;
83018;SDS011;72834;40.104;18.336;2024-03-02T07:30:05;17.10;;;9.60;;
83018;SDS011;72834;40.104;18.336;2024-03-02T07:32:32;17.50;;;4.70;;
83018;SDS011;72834;40.104;18.336;2024-03-02T07:34:58;14.48;;;3.15;;
83018;SDS011;72834;40.104;18.336;2024-03-02T07:37:28;14.60;;;3.88;;
83018;SDS011;72834;40.104;18.336;2024-03-02T07:39:54;12.43;;;3.90;;
83018;SDS011;72834;40.104;18.336;2024-03-02T07:42:20;22.40;;;3.85;;
83018;SDS011;72834;40.104;18.336;2024-03-02T07:44:47;20.40;;;3.95;;
83018;SDS011;72834;40.104;18.336;2024-03-02T07:47:13;15.70;;;2.70;;
83018;SDS011;72834;40.104;18.336;2024-03-02T07:49:40;13.18;;;2.53;;
83018;SDS011;72834;40.104;18.336;2024-03-02T07:52:06;10.10;;;3.22;;
83018;SDS011;72834;40.104;18.336;2024-03-02T07:54:33;9.93;;;3.90;;
83018;SDS011;72834;40.104;18.336;2024-03-02T07:56:59;14.50;;;3.78;;
83018;SDS011;72834;40.104;18.336;2024-03-02T07:59:26;14.52;;;2.55;;
83018;SDS011;72834;40.104;18.336;2024-03-02T08:01:52;14.70;;;2.30;;
83018;SDS011;72834;40.104;18.336;2024-03-02T08:04:20;14.23;;;4.28;;
83018;SDS011;72834;40.104;18.336;2024-03-02T08:06:47;34.88;;;14.32;;
83018;SDS011;72834;40.104;18.336;2024-03-02T08:09:13;16.58;;;7.50;;
83018;SDS011;72834;40.104;18.336;2024-03-02T08:11:39;18.48;;;6.72;;
83018;SDS011;72834;40.104;18.336;2024-03-02T08:14:05;13.85;;;4.32;;
83018;SDS011;72834;40.104;18.336;2024-03-02T08:16:32;37.75;;;18.17;;
83018;SDS011;72834;40.104;18.336;2024-03-02T08:18:58;46.55;;;22.48;;
83018;SDS011;72834;40.104;18.336;2024-03-02T08:21:25;23.02;;;10.77;;
83018;SDS011;72834;40.104;18.336;2024-03-02T08:23:51;12.77;;;4.00;;
83018;SDS011;72834;40.104;18.336;2024-03-02T08:26:18;18.83;;;4.00;;
83018;SDS011;72834;40.104;18.336;2024-03-02T08:28:44;13.70;;;4.20;;
83018;SDS011;72834;40.104;18.336;2024-03-02T08:31:10;16.48;;;3.55;;
83018;SDS011;72834;40.104;18.336;2024-03-02T08:33:37;21.05;;;3.90;;
83018;SDS011;72834;40.104;18.336;2024-03-02T08:36:03;13.00;;;4.03;;
83018;SDS011;72834;40.104;18.336;2024-03-02T08:38:30;11.85;;;3.78;;
83018;SDS011;72834;40.104;18.336;2024-03-02T08:40:57;21.10;;;4.25;;
83018;SDS011;72834;40.104;18.336;2024-03-02T08:43:23;7.85;;;2.97;;
83018;SDS011;72834;40.104;18.336;2024-03-02T08:45:50;22.20;;;8.05;;
83018;SDS011;72834;40.104;18.336;2024-03-02T08:48:16;17.42;;;6.68;;
83018;SDS011;72834;40.104;18.336;2024-03-02T08:50:43;17.90;;;4.22;;
83018;SDS011;72834;40.104;18.336;2024-03-02T08:53:09;13.95;;;4.63;;
83018;SDS011;72834;40.104;18.336;2024-03-02T08:55:35;17.20;;;3.53;;
83018;SDS011;72834;40.104;18.336;2024-03-02T08:58:02;18.02;;;4.53;;
83018;SDS011;72834;40.104;18.336;2024-03-02T09:00:28;18.33;;;5.35;;
83018;SDS011;72834;40.104;18.336;2024-03-02T09:02:55;15.90;;;2.70;;
83018;SDS011;72834;40.104;18.336;2024-03-02T09:05:21;18.45;;;3.20;;
83018;SDS011;72834;40.104;18.336;2024-03-02T09:07:47;15.07;;;4.00;;
83018;SDS011;72834;40.104;18.336;2024-03-02T09:10:14;67.00;;;25.33;;
83018;SDS011;72834;40.104;18.336;2024-03-02T09:12:40;29.42;;;9.93;;
83018;SDS011;72834;40.104;18.336;2024-03-02T09:15:06;46.03;;;17.05;;
83018;SDS011;72834;40.104;18.336;2024-03-02T09:17:33;40.40;;;13.82;;
83018;SDS011;72834;40.104;18.336;2024-03-02T09:19:59;63.42;;;21.90;;
83018;SDS011;72834;40.104;18.336;2024-03-02T09:22:26;57.55;;;22.17;;
83018;SDS011;72834;40.104;18.336;2024-03-02T09:24:52;29.55;;;10.63;;
83018;SDS011;72834;40.104;18.336;2024-03-02T09:27:18;33.42;;;17.23;;
83018;SDS011;72834;40.104;18.336;2024-03-02T09:29:44;22.55;;;8.05;;
83018;SDS011;72834;40.104;18.336;2024-03-02T09:32:14;24.13;;;10.23;;
83018;SDS011;72834;40.104;18.336;2024-03-02T09:34:41;16.30;;;3.67;;
83018;SDS011;72834;40.104;18.336;2024-03-02T09:37:08;15.60;;;6.40;;
83018;SDS011;72834;40.104;18.336;2024-03-02T09:39:35;23.02;;;7.68;;
83018;SDS011;72834;40.104;18.336;2024-03-02T09:42:01;20.15;;;6.13;;
83018;SDS011;72834;40.104;18.336;2024-03-02T09:44:29;20.75;;;4.78;;
83018;SDS011;72834;40.104;18.336;2024-03-02T09:46:56;19.67;;;10.52;;
83018;SDS011;72834;40.104;18.336;2024-03-02T09:49:22;29.50;;;6.15;;
83018;SDS011;72834;40.104;18.336;2024-03-02T09:51:49;15.40;;;4.53;;
83018;SDS011;72834;40.104;18.336;2024-03-02T09:54:16;25.73;;;10.30;;
83018;SDS011;72834;40.104;18.336;2024-03-02T09:56:46;10.70;;;5.15;;
83018;SDS011;72834;40.104;18.336;2024-03-02T09:59:12;27.58;;;7.25;;
83018;SDS011;72834;40.104;18.336;2024-03-02T10:01:55;10.68;;;4.15;;
83018;SDS011;72834;40.104;18.336;2024-03-02T10:04:25;9.38;;;3.90;;
83018;SDS011;72834;40.104;18.336;2024-03-02T10:09:38;16.40;;;4.47;;
83018;SDS011;72834;40.104;18.336;2024-03-02T10:12:05;16.45;;;4.55;;
83018;SDS011;72834;40.104;18.336;2024-03-02T10:14:33;13.30;;;4.13;;
83018;SDS011;72834;40.104;18.336;2024-03-02T10:17:06;17.73;;;4.47;;
83018;SDS011;72834;40.104;18.336;2024-03-02T10:19:34;12.40;;;3.65;;
83018;SDS011;72834;40.104;18.336;2024-03-02T10:22:02;13.52;;;3.20;;
83018;SDS011;72834;40.104;18.336;2024-03-02T10:27:26;13.93;;;2.88;;
83018;SDS011;72834;40.104;18.336;2024-03-02T10:29:53;11.43;;;2.55;;
83018;SDS011;72834;40.104;18.336;2024-03-02T10:32:19;14.23;;;3.75;;
83018;SDS011;72834;40.104;18.336;2024-03-02T10:34:49;14.90;;;3.20;;
83018;SDS011;72834;40.104;18.336;2024-03-02T10:37:16;12.27;;;2.78;;
83018;SDS011;72834;40.104;18.336;2024-03-02T10:39:47;14.20;;;2.78;;
83018;SDS011;72834;40.104;18.336;2024-03-02T10:42:14;20.55;;;2.65;;
83018;SDS011;72834;40.104;18.336;2024-03-02T10:44:40;16.60;;;2.72;;
83018;SDS011;72834;40.104;18.336;2024-03-02T10:47:08;13.23;;;3.75;;
83018;SDS011;72834;40.104;18.336;2024-03-02T10:49:37;12.13;;;1.92;;
83018;SDS011;72834;40.104;18.336;2024-03-02T10:52:07;20.20;;;3.47;;
83018;SDS011;72834;40.104;18.336;2024-03-02T10:54:34;22.10;;;5.65;;
83018;SDS011;72834;40.104;18.336;2024-03-02T10:57:05;20.83;;;6.78;;
83018;SDS011;72834;40.104;18.336;2024-03-02T10:59:36;15.32;;;4.15;;
83018;SDS011;72834;40.104;18.336;2024-03-02T11:02:05;13.75;;;2.20;;
83018;SDS011;72834;40.104;18.336;2024-03-02T11:04:34;14.05;;;2.40;;
83018;SDS011;72834;40.104;18.336;2024-03-02T11:07:04;8.52;;;2.42;;
83018;SDS011;72834;40.104;18.336;2024-03-02T11:09:36;16.95;;;2.55;;
83018;SDS011;72834;40.104;18.336;2024-03-02T11:12:12;10.07;;;2.10;;
83018;SDS011;72834;40.104;18.336;2024-03-02T11:14:41;14.63;;;3.53;;
83018;SDS011;72834;40.104;18.336;2024-03-02T11:17:11;15.95;;;3.10;;
83018;SDS011;72834;40.104;18.336;2024-03-02T11:19:41;16.92;;;2.95;;
83018;SDS011;72834;40.104;18.336;2024-03-02T11:22:08;9.23;;;2.17;;
83018;SDS011;72834;40.104;18.336;2024-03-02T11:24:35;14.00;;;2.90;;
83018;SDS011;72834;40.104;18.336;2024-03-02T11:27:03;15.02;;;3.17;;
83018;SDS011;72834;40.104;18.336;2024-03-02T11:32:14;10.77;;;2.50;;
83018;SDS011;72834;40.104;18.336;2024-03-02T11:34:42;18.70;;;4.57;;
83018;SDS011;72834;40.104;18.336;2024-03-02T11:37:12;12.15;;;2.20;;
83018;SDS011;72834;40.104;18.336;2024-03-02T11:39:39;18.38;;;2.35;;
83018;SDS011;72834;40.104;18.336;2024-03-02T11:42:08;14.85;;;2.42;;
83018;SDS011;72834;40.104;18.336;2024-03-02T11:44:36;30.33;;;12.60;;
83018;SDS011;72834;40.104;18.336;2024-03-02T11:47:08;19.30;;;6.28;;
83018;SDS011;72834;40.104;18.336;2024-03-02T11:49:40;36.13;;;14.43;;
83018;SDS011;72834;40.104;18.336;2024-03-02T11:52:17;24.48;;;8.45;;
83018;SDS011;72834;40.104;18.336;2024-03-02T11:54:45;16.02;;;5.53;;
83018;SDS011;72834;40.104;18.336;2024-03-02T11:57:13;14.27;;;4.18;;
83018;SDS011;72834;40.104;18.336;2024-03-02T11:59:43;13.60;;;2.53;;
83018;SDS011;72834;40.104;18.336;2024-03-02T12:02:16;12.85;;;4.70;;
83018;SDS011;72834;40.104;18.336;2024-03-02T12:04:44;9.35;;;2.88;;
83018;SDS011;72834;40.104;18.336;2024-03-02T12:07:19;14.48;;;2.28;;
83018;SDS011;72834;40.104;18.336;2024-03-02T12:09:48;15.50;;;3.35;;
83018;SDS011;72834;40.104;18.336;2024-03-02T12:12:14;14.07;;;3.55;;
83018;SDS011;72834;40.104;18.336;2024-03-02T12:14:50;14.88;;;3.28;;
83018;SDS011;72834;40.104;18.336;2024-03-02T12:17:18;15.38;;;3.88;;
83018;SDS011;72834;40.104;18.336;2024-03-02T12:19:45;23.17;;;6.00;;
83018;SDS011;72834;40.104;18.336;2024-03-02T12:22:12;18.67;;;4.47;;
83018;SDS011;72834;40.104;18.336;2024-03-02T12:24:38;15.00;;;3.47;;
83018;SDS011;72834;40.104;18.336;2024-03-02T12:27:12;16.67;;;2.83;;
83018;SDS011;72834;40.104;18.336;2024-03-02T12:29:47;10.82;;;2.35;;
83018;SDS011;72834;40.104;18.336;2024-03-02T12:32:14;12.20;;;2.47;;
83018;SDS011;72834;40.104;18.336;2024-03-02T12:34:40;17.75;;;2.88;;
83018;SDS011;72834;40.104;18.336;2024-03-02T12:37:06;17.75;;;3.42;;
83018;SDS011;72834;40.104;18.336;2024-03-02T12:39:33;16.20;;;3.35;;
83018;SDS011;72834;40.104;18.336;2024-03-02T12:41:59;12.88;;;3.13;;
83018;SDS011;72834;40.104;18.336;2024-03-02T12:44:25;16.13;;;2.60;;
83018;SDS011;72834;40.104;18.336;2024-03-02T12:46:51;17.15;;;4.35;;
83018;SDS011;72834;40.104;18.336;2024-03-02T12:49:21;17.75;;;4.00;;
83018;SDS011;72834;40.104;18.336;2024-03-02T12:51:48;15.70;;;2.63;;
83018;SDS011;72834;40.104;18.336;2024-03-02T12:54:21;18.47;;;4.40;;
83018;SDS011;72834;40.104;18.336;2024-03-02T12:56:48;15.35;;;3.22;;
83018;SDS011;72834;40.104;18.336;2024-03-02T12:59:21;17.98;;;4.35;;
83018;SDS011;72834;40.104;18.336;2024-03-02T13:01:50;14.40;;;2.42;;
83018;SDS011;72834;40.104;18.336;2024-03-02T13:04:21;17.58;;;3.03;;
83018;SDS011;72834;40.104;18.336;2024-03-02T13:06:49;6.78;;;1.80;;
83018;SDS011;72834;40.104;18.336;2024-03-02T13:09:16;14.15;;;2.55;;
83018;SDS011;72834;40.104;18.336;2024-03-02T13:11:43;10.95;;;3.53;;
83018;SDS011;72834;40.104;18.336;2024-03-02T13:14:12;13.82;;;3.92;;
83018;SDS011;72834;40.104;18.336;2024-03-02T13:16:39;15.00;;;3.30;;
83018;SDS011;72834;40.104;18.336;2024-03-02T13:19:07;12.60;;;1.90;;
83018;SDS011;72834;40.104;18.336;2024-03-02T13:21:34;14.00;;;2.45;;
83018;SDS011;72834;40.104;18.336;2024-03-02T13:24:00;15.02;;;2.63;;
83018;SDS011;72834;40.104;18.336;2024-03-02T13:26:29;11.02;;;2.45;;
83018;SDS011;72834;40.104;18.336;2024-03-02T13:28:55;12.20;;;3.13;;
83018;SDS011;72834;40.104;18.336;2024-03-02T13:31:21;16.77;;;2.95;;
83018;SDS011;72834;40.104;18.336;2024-03-02T13:33:48;16.10;;;3.25;;
83018;SDS011;72834;40.104;18.336;2024-03-02T13:36:14;14.52;;;2.85;;
83018;SDS011;72834;40.104;18.336;2024-03-02T13:38:40;20.50;;;3.35;;
83018;SDS011;72834;40.104;18.336;2024-03-02T13:41:07;13.85;;;3.25;;
83018;SDS011;72834;40.104;18.336;2024-03-02T13:43:34;12.77;;;2.50;;
83018;SDS011;72834;40.104;18.336;2024-03-02T13:46:04;10.60;;;2.80;;
83018;SDS011;72834;40.104;18.336;2024-03-02T13:48:30;15.68;;;2.88;;
83018;SDS011;72834;40.104;18.336;2024-03-02T13:50:57;14.75;;;4.70;;
83018;SDS011;72834;40.104;18.336;2024-03-02T13:53:23;17.95;;;4.75;;
83018;SDS011;72834;40.104;18.336;2024-03-02T13:55:51;18.38;;;2.45;;
83018;SDS011;72834;40.104;18.336;2024-03-02T13:58:17;15.90;;;3.78;;
83018;SDS011;72834;40.104;18.336;2024-03-02T14:00:46;9.25;;;2.45;;
83018;SDS011;72834;40.104;18.336;2024-03-02T14:03:12;14.82;;;3.03;;
83018;SDS011;72834;40.104;18.336;2024-03-02T14:05:39;18.67;;;3.03;;
83018;SDS011;72834;40.104;18.336;2024-03-02T14:08:06;13.07;;;2.35;;
83018;SDS011;72834;40.104;18.336;2024-03-02T14:10:32;18.13;;;3.78;;
83018;SDS011;72834;40.104;18.336;2024-03-02T14:12:58;26.38;;;12.40;;
83018;SDS011;72834;40.104;18.336;2024-03-02T14:15:25;18.30;;;5.20;;
83018;SDS011;72834;40.104;18.336;2024-03-02T14:17:51;15.05;;;3.90;;
83018;SDS011;72834;40.104;18.336;2024-03-02T14:20:18;23.48;;;5.60;;
83018;SDS011;72834;40.104;18.336;2024-03-02T14:22:47;13.48;;;2.88;;
83018;SDS011;72834;40.104;18.336;2024-03-02T14:25:14;38.97;;;20.15;;
83018;SDS011;72834;40.104;18.336;2024-03-02T14:27:42;62.20;;;24.23;;
83018;SDS011;72834;40.104;18.336;2024-03-02T14:30:08;62.95;;;26.02;;
83018;SDS011;72834;40.104;18.336;2024-03-02T14:32:35;37.78;;;17.38;;
83018;SDS011;72834;40.104;18.336;2024-03-02T14:35:01;46.28;;;19.85;;